Time;durP1;ratioP1;P1;durP2;ratioP2;P2;SDS_P1;SDS_P2;PMS_P1;PMS_P2;Temp;Humidity;BMP_temperature;BMP_pressure;BME280_temperature;BME280_humidity;BME280_pressure;Samples;Min_cycle;Max_cycle;Signal;HPM_P1;HPM_P2
2022/10/28 00:02:20;;;;;;;3.58;0.88;;;15.00;99.90;;;;;;5087057;28;20020;-83
2022/10/28 00:04:45;;;;;;;2.75;0.98;;;14.90;99.90;;;;;;5068642;28;20556;-74
2022/10/28 00:07:11;;;;;;;2.45;0.80;;;14.80;99.90;;;;;;5085083;28;20530;-75
2022/10/28 00:09:37;;;;;;;3.30;1.00;;;14.90;99.90;;;;;;5089022;28;20039;-76
2022/10/28 00:12:03;;;;;;;2.42;0.90;;;14.70;99.90;;;;;;5075942;28;20362;-77
2022/10/28 00:14:29;;;;;;;2.85;0.88;;;14.70;99.90;;;;;;5084535;28;20210;-78
2022/10/28 00:16:54;;;;;;;3.65;0.80;;;14.80;99.90;;;;;;5085226;28;20495;-75
2022/10/28 00:19:20;;;;;;;2.92;0.82;;;14.80;99.90;;;;;;5085356;28;20077;-79
2022/10/28 00:21:45;;;;;;;4.75;0.95;;;14.70;99.90;;;;;;5084192;28;20120;-75
2022/10/28 00:24:12;;;;;;;5.57;1.33;;;14.80;99.90;;;;;;5083685;28;20101;-75
2022/10/28 00:26:43;;;;;;;2.67;1.15;;;14.80;99.90;;;;;;5083683;28;20082;-74
2022/10/28 00:29:12;;;;;;;2.30;0.90;;;14.90;99.90;;;;;;5085489;28;20042;-82
2022/10/28 00:31:37;;;;;;;2.25;0.95;;;14.90;99.90;;;;;;5082793;28;20081;-74
2022/10/28 00:34:06;;;;;;;2.25;0.80;;;14.80;99.90;;;;;;5084518;28;20461;-81
2022/10/28 00:36:35;;;;;;;2.10;0.93;;;14.80;99.90;;;;;;5082190;28;20537;-83
2022/10/28 00:39:02;;;;;;;2.75;0.90;;;14.70;99.90;;;;;;5080588;28;20032;-76
2022/10/28 00:41:36;;;;;;;2.85;1.15;;;14.80;99.90;;;;;;5085126;28;20035;-75
2022/10/28 00:44:44;;;;;;;2.10;0.88;;;14.60;99.90;;;;;;5084529;28;20036;-75
2022/10/28 00:47:16;;;;;;;3.97;0.82;;;14.60;99.90;;;;;;5078417;28;21163;-75
2022/10/28 00:49:44;;;;;;;2.05;0.77;;;14.50;99.90;;;;;;5078315;28;20115;-75
2022/10/28 00:52:15;;;;;;;3.20;1.02;;;14.50;99.90;;;;;;5064031;28;20155;-75
2022/10/28 00:54:42;;;;;;;2.33;1.15;;;14.50;99.90;;;;;;5093321;28;20513;-79
2022/10/28 00:57:18;;;;;;;3.38;1.02;;;14.60;99.90;;;;;;5079701;28;20028;-80
2022/10/28 00:59:48;;;;;;;2.17;0.75;;;14.60;99.90;;;;;;5084651;28;20073;-81
2022/10/28 01:02:14;;;;;;;2.95;0.90;;;14.70;99.90;;;;;;5080077;28;20095;-80
2022/10/28 01:04:41;;;;;;;3.10;0.82;;;14.60;99.90;;;;;;5085442;28;20024;-75
2022/10/28 01:07:07;;;;;;;1.55;0.70;;;14.60;99.90;;;;;;5084643;28;20209;-75
2022/10/28 01:09:32;;;;;;;3.30;0.90;;;14.60;99.90;;;;;;5086894;28;20169;-80
2022/10/28 01:12:20;;;;;;;3.10;0.88;;;14.50;99.90;;;;;;5084508;28;20471;-76
2022/10/28 01:15:10;;;;;;;4.05;1.23;;;14.50;99.90;;;;;;5064597;28;20079;-75
2022/10/28 01:17:43;;;;;;;2.15;0.93;;;14.60;99.90;;;;;;5085185;28;20020;-77
2022/10/28 01:20:47;;;;;;;2.42;0.75;;;14.40;99.90;;;;;;5082303;28;20024;-80
2022/10/28 01:23:31;;;;;;;2.47;0.85;;;14.40;99.90;;;;;;5073307;28;20442;-82
2022/10/28 01:26:27;;;;;;;2.63;1.00;;;14.50;99.90;;;;;;5082932;28;20028;-82
2022/10/28 01:29:30;;;;;;;2.45;0.90;;;14.50;99.90;;;;;;5057868;28;20133;-75
2022/10/28 01:32:14;;;;;;;2.72;0.65;;;14.40;99.90;;;;;;5081121;28;20424;-75
2022/10/28 01:35:08;;;;;;;2.63;1.30;;;14.40;99.90;;;;;;5083893;28;20033;-82
2022/10/28 01:38:01;;;;;;;1.90;0.90;;;14.40;99.90;;;;;;5090053;28;20028;-75
2022/10/28 01:40:43;;;;;;;2.47;0.98;;;14.40;99.90;;;;;;5084955;28;20482;-75
2022/10/28 01:43:17;;;;;;;2.58;1.23;;;14.40;99.90;;;;;;5078584;28;20074;-77
2022/10/28 01:45:52;;;;;;;3.50;0.73;;;14.40;99.90;;;;;;5085877;28;20032;-76
2022/10/28 01:48:24;;;;;;;2.33;1.08;;;14.30;99.90;;;;;;5082383;28;20028;-75
2022/10/28 01:51:28;;;;;;;3.13;0.98;;;14.20;99.90;;;;;;5083636;28;20096;-75
2022/10/28 01:53:57;;;;;;;3.78;0.90;;;14.10;99.90;;;;;;5096145;28;20048;-75
2022/10/28 01:56:31;;;;;;;3.17;0.90;;;14.10;99.90;;;;;;5065777;28;20028;-75
2022/10/28 01:59:00;;;;;;;3.10;1.02;;;14.10;99.90;;;;;;5084724;28;20471;-75
2022/10/28 02:01:28;;;;;;;3.03;0.80;;;13.90;99.90;;;;;;5084334;28;20118;-77
2022/10/28 02:03:55;;;;;;;2.30;0.80;;;14.00;99.90;;;;;;5085272;28;20020;-80
2022/10/28 02:06:26;;;;;;;2.30;0.70;;;14.00;99.90;;;;;;5081888;28;20524;-78
2022/10/28 02:08:56;;;;;;;2.75;0.90;;;14.00;99.90;;;;;;5065003;28;20400;-75
2022/10/28 02:11:52;;;;;;;4.25;0.95;;;13.90;99.90;;;;;;5082780;28;20392;-75
2022/10/28 02:14:34;;;;;;;2.85;1.08;;;13.90;99.90;;;;;;5093427;28;20401;-74
2022/10/28 02:17:15;;;;;;;3.97;1.00;;;13.70;99.90;;;;;;5084226;28;20381;-75
2022/10/28 02:19:52;;;;;;;4.70;0.90;;;13.80;99.90;;;;;;5083100;28;20051;-75
2022/10/28 02:22:48;;;;;;;1.85;0.80;;;13.80;99.90;;;;;;5083361;28;20024;-79
2022/10/28 02:25:22;;;;;;;2.92;1.00;;;13.90;99.90;;;;;;5069866;28;20377;-75
2022/10/28 02:28:07;;;;;;;3.95;0.70;;;14.00;99.90;;;;;;5081090;28;20046;-79
2022/10/28 02:30:44;;;;;;;3.30;0.80;;;14.20;99.90;;;;;;5081203;28;20029;-76
2022/10/28 02:33:13;;;;;;;2.30;0.80;;;14.20;99.90;;;;;;5079017;28;20078;-75
2022/10/28 02:35:45;;;;;;;4.25;1.00;;;14.40;99.90;;;;;;5082900;28;20033;-75
2022/10/28 02:38:17;;;;;;;4.07;0.90;;;14.40;99.90;;;;;;5085883;28;20044;-82
2022/10/28 02:40:47;;;;;;;4.78;1.25;;;14.50;99.90;;;;;;5081859;28;20039;-81
2022/10/28 02:43:15;;;;;;;2.13;0.90;;;14.60;99.90;;;;;;5084052;28;20073;-77
2022/10/28 02:45:45;;;;;;;3.95;1.05;;;14.60;99.90;;;;;;5082709;28;20387;-75
2022/10/28 02:48:32;;;;;;;3.40;1.48;;;14.50;99.90;;;;;;5082797;28;20028;-75
2022/10/28 02:51:10;;;;;;;2.63;0.80;;;14.60;99.90;;;;;;5097288;28;20029;-78
2022/10/28 02:54:08;;;;;;;2.90;0.88;;;14.70;99.90;;;;;;5081764;28;20053;-81
2022/10/28 02:56:48;;;;;;;2.95;1.05;;;14.60;99.90;;;;;;5080369;28;20124;-82
2022/10/28 02:59:14;;;;;;;2.05;1.10;;;14.60;99.90;;;;;;5095670;28;20484;-75
2022/10/28 03:01:39;;;;;;;2.95;1.02;;;14.70;99.90;;;;;;5085785;28;20119;-75
2022/10/28 03:04:05;;;;;;;4.57;1.67;;;14.60;99.90;;;;;;5081729;28;20032;-75
2022/10/28 03:06:31;;;;;;;3.47;1.13;;;14.60;99.90;;;;;;5080749;28;20021;-79
2022/10/28 03:08:57;;;;;;;3.67;1.17;;;14.70;99.90;;;;;;5079497;28;20115;-75
2022/10/28 03:11:22;;;;;;;2.97;0.85;;;14.60;99.90;;;;;;5084076;28;20030;-75
2022/10/28 03:13:48;;;;;;;3.55;1.02;;;14.70;99.90;;;;;;5085218;28;20039;-77
2022/10/28 03:16:14;;;;;;;3.00;1.00;;;14.60;99.90;;;;;;5082807;28;20037;-81
2022/10/28 03:18:39;;;;;;;3.40;0.95;;;14.80;99.90;;;;;;5082207;28;20050;-81
2022/10/28 03:21:05;;;;;;;3.53;1.25;;;14.70;99.90;;;;;;5083932;28;20024;-75
2022/10/28 03:23:30;;;;;;;2.45;1.33;;;14.60;99.90;;;;;;5091673;28;20036;-83
2022/10/28 03:25:56;;;;;;;2.50;0.70;;;14.60;99.90;;;;;;5080454;28;20262;-79
2022/10/28 03:28:22;;;;;;;2.67;0.90;;;14.60;99.90;;;;;;5084213;28;20138;-82
2022/10/28 03:30:47;;;;;;;3.17;1.13;;;14.60;99.90;;;;;;5081727;28;20123;-77
2022/10/28 03:33:13;;;;;;;3.17;0.88;;;14.60;99.90;;;;;;5093227;28;20032;-76
2022/10/28 03:35:39;;;;;;;1.95;0.80;;;14.60;99.90;;;;;;5081876;28;20039;-75
2022/10/28 03:38:05;;;;;;;2.63;1.20;;;14.60;99.90;;;;;;5081895;28;20028;-79
2022/10/28 03:40:30;;;;;;;5.10;1.23;;;14.60;99.90;;;;;;5081310;28;21229;-80
2022/10/28 03:42:56;;;;;;;3.75;0.80;;;14.60;99.90;;;;;;5086685;28;20027;-75
2022/10/28 03:45:22;;;;;;;1.73;0.70;;;14.60;99.90;;;;;;5066685;28;20492;-75
2022/10/28 03:47:47;;;;;;;4.32;1.13;;;14.60;99.90;;;;;;5086819;28;20448;-76
2022/10/28 03:50:13;;;;;;;3.58;0.75;;;14.60;99.90;;;;;;5082528;28;20128;-75
2022/10/28 03:52:39;;;;;;;3.65;0.82;;;14.60;99.90;;;;;;5085974;28;20118;-75
2022/10/28 03:55:05;;;;;;;3.88;0.80;;;14.70;99.90;;;;;;5087549;28;20075;-75
2022/10/28 03:57:31;;;;;;;2.08;0.65;;;14.60;99.90;;;;;;5100611;28;20538;-77
2022/10/28 03:59:57;;;;;;;2.05;0.75;;;14.60;99.90;;;;;;5069109;28;20035;-81
2022/10/28 04:02:22;;;;;;;2.63;1.00;;;14.60;99.90;;;;;;5086236;28;20050;-80
2022/10/28 04:04:48;;;;;;;4.70;0.73;;;14.50;99.90;;;;;;5084561;28;20033;-76
2022/10/28 04:07:14;;;;;;;3.65;0.85;;;14.60;99.90;;;;;;5068685;28;20035;-76
2022/10/28 04:09:39;;;;;;;1.90;0.60;;;14.60;99.90;;;;;;5096570;28;20028;-80
2022/10/28 04:12:05;;;;;;;3.13;1.05;;;14.50;99.90;;;;;;5068733;28;20032;-80
2022/10/28 04:14:31;;;;;;;2.67;0.85;;;14.50;99.90;;;;;;5065596;28;20094;-76
2022/10/28 04:16:56;;;;;;;3.83;0.90;;;14.50;99.90;;;;;;5085966;28;20040;-76
2022/10/28 04:19:22;;;;;;;5.00;0.70;;;14.40;99.90;;;;;;5077833;28;20042;-77
2022/10/28 04:21:48;;;;;;;4.93;1.00;;;14.40;99.90;;;;;;5085446;28;20364;-80
2022/10/28 04:24:13;;;;;;;3.35;0.82;;;14.40;99.90;;;;;;5084920;28;20494;-81
2022/10/28 04:26:39;;;;;;;2.72;0.68;;;14.30;99.90;;;;;;5083850;28;20411;-76
2022/10/28 04:29:04;;;;;;;3.50;0.90;;;14.30;99.90;;;;;;5077657;28;20505;-81
2022/10/28 04:31:30;;;;;;;2.78;0.93;;;14.40;99.90;;;;;;5079406;28;20024;-76
2022/10/28 04:33:56;;;;;;;4.47;0.98;;;14.40;99.90;;;;;;5066034;28;20028;-77
2022/10/28 04:36:21;;;;;;;4.97;0.93;;;14.40;99.90;;;;;;5099456;28;20028;-79
2022/10/28 04:38:47;;;;;;;2.20;0.80;;;14.30;99.90;;;;;;5082850;28;20434;-76
2022/10/28 04:41:13;;;;;;;1.70;0.60;;;14.40;99.90;;;;;;5085250;28;20286;-76
2022/10/28 04:43:39;;;;;;;3.75;0.70;;;14.40;99.90;;;;;;5067194;28;20040;-75
2022/10/28 04:46:05;;;;;;;3.70;0.77;;;14.40;99.90;;;;;;5093968;28;20024;-76
2022/10/28 04:48:32;;;;;;;2.72;0.80;;;14.40;99.90;;;;;;5083158;28;20029;-75
2022/10/28 04:50:57;;;;;;;3.67;0.80;;;14.30;99.90;;;;;;5087702;28;20035;-76
2022/10/28 04:53:23;;;;;;;2.47;0.68;;;14.30;99.90;;;;;;5084569;28;20430;-75
2022/10/28 04:55:49;;;;;;;3.97;0.80;;;14.30;99.90;;;;;;5082480;28;20032;-82
2022/10/28 04:58:14;;;;;;;3.22;0.75;;;14.40;99.90;;;;;;5084711;28;20435;-76
2022/10/28 05:00:40;;;;;;;3.20;0.80;;;14.40;99.90;;;;;;5083672;28;20392;-83
2022/10/28 05:03:06;;;;;;;4.70;1.20;;;14.40;99.90;;;;;;5082537;28;20034;-80
2022/10/28 05:05:31;;;;;;;3.65;1.23;;;14.40;99.90;;;;;;5084310;28;20120;-79
2022/10/28 05:07:57;;;;;;;2.38;0.80;;;14.40;99.90;;;;;;5083176;28;20031;-80
2022/10/28 05:10:23;;;;;;;2.67;0.77;;;14.40;99.90;;;;;;5083721;28;20039;-77
2022/10/28 05:12:49;;;;;;;2.78;1.00;;;14.30;99.90;;;;;;5080802;28;20032;-75
2022/10/28 05:15:15;;;;;;;4.13;0.98;;;14.40;99.90;;;;;;5083712;28;20109;-75
2022/10/28 05:17:43;;;;;;;2.10;0.77;;;14.30;99.90;;;;;;5081031;28;20020;-79
2022/10/28 05:20:10;;;;;;;2.45;0.88;;;14.40;99.90;;;;;;5085671;28;20385;-76
2022/10/28 05:22:37;;;;;;;3.10;0.80;;;14.40;99.90;;;;;;5085260;28;20016;-77
2022/10/28 05:25:03;;;;;;;3.08;0.80;;;14.40;99.90;;;;;;5084473;28;20051;-75
2022/10/28 05:27:29;;;;;;;2.35;0.80;;;14.40;99.90;;;;;;5084090;28;20048;-75
2022/10/28 05:29:54;;;;;;;2.85;0.80;;;14.40;99.90;;;;;;5084190;28;20086;-83
2022/10/28 05:32:20;;;;;;;3.00;0.80;;;14.40;99.90;;;;;;5078829;28;20024;-75
2022/10/28 05:34:46;;;;;;;6.40;0.98;;;14.40;99.90;;;;;;5084416;28;20023;-82
2022/10/28 05:37:11;;;;;;;3.00;0.68;;;14.30;99.90;;;;;;5082537;28;20393;-76
2022/10/28 05:39:37;;;;;;;3.10;0.80;;;14.40;99.90;;;;;;5084162;28;20051;-76
2022/10/28 05:42:03;;;;;;;4.95;1.13;;;14.30;99.90;;;;;;5080630;28;20044;-81
2022/10/28 05:44:28;;;;;;;4.30;0.90;;;14.20;99.90;;;;;;5082844;28;20016;-76
2022/10/28 05:46:55;;;;;;;4.25;1.13;;;14.20;99.90;;;;;;5064812;28;20029;-82
2022/10/28 05:49:21;;;;;;;2.58;0.73;;;14.20;99.90;;;;;;5084590;28;20031;-81
2022/10/28 05:51:47;;;;;;;3.63;0.85;;;14.20;99.90;;;;;;5085578;28;20034;-79
2022/10/28 05:54:12;;;;;;;3.60;0.90;;;14.20;99.90;;;;;;5065703;28;20054;-82
2022/10/28 05:56:38;;;;;;;4.43;0.75;;;14.20;99.90;;;;;;5080369;28;20043;-75
2022/10/28 05:59:04;;;;;;;5.20;0.70;;;14.20;99.90;;;;;;5082910;28;20161;-75
2022/10/28 06:01:29;;;;;;;2.60;0.65;;;14.20;99.90;;;;;;5065041;28;20551;-75
2022/10/28 06:03:55;;;;;;;4.18;0.90;;;14.20;99.90;;;;;;5079010;28;20024;-79
2022/10/28 06:06:20;;;;;;;4.35;0.90;;;14.20;99.90;;;;;;5080682;28;20073;-77
2022/10/28 06:08:46;;;;;;;2.33;0.80;;;14.10;99.90;;;;;;5078974;28;20024;-77
2022/10/28 06:11:12;;;;;;;2.55;0.80;;;14.10;99.90;;;;;;5084401;28;20020;-75
2022/10/28 06:13:38;;;;;;;2.92;0.80;;;14.00;99.90;;;;;;5083700;28;20028;-76
2022/10/28 06:16:04;;;;;;;4.32;0.65;;;14.10;99.90;;;;;;5083865;28;20036;-76
2022/10/28 06:18:29;;;;;;;2.25;0.82;;;14.00;99.90;;;;;;5092989;28;20822;-75
2022/10/28 06:20:57;;;;;;;4.95;0.77;;;14.10;99.90;;;;;;5082552;28;20107;-76
2022/10/28 06:23:24;;;;;;;2.65;0.63;;;14.00;99.90;;;;;;5084031;28;20312;-81
2022/10/28 06:25:50;;;;;;;2.88;0.77;;;14.10;99.90;;;;;;5085635;28;20024;-81
2022/10/28 06:28:16;;;;;;;3.55;0.70;;;14.00;99.90;;;;;;5092871;28;20099;-82
2022/10/28 06:30:42;;;;;;;3.75;0.90;;;14.00;99.90;;;;;;5084658;28;20116;-80
2022/10/28 06:33:08;;;;;;;3.95;0.70;;;14.10;99.90;;;;;;5084976;28;20052;-75
2022/10/28 06:35:33;;;;;;;3.78;0.98;;;14.00;99.90;;;;;;5081539;28;20048;-80
2022/10/28 06:37:59;;;;;;;2.70;0.80;;;14.10;99.90;;;;;;5080614;28;20020;-78
2022/10/28 06:40:25;;;;;;;2.13;0.80;;;14.10;99.90;;;;;;5094409;28;20110;-75
2022/10/28 06:43:02;;;;;;;1.60;0.65;;;14.10;99.90;;;;;;5064507;28;20028;-75
2022/10/28 06:45:33;;;;;;;2.58;0.65;;;14.20;99.90;;;;;;5093143;28;20034;-75
2022/10/28 06:48:01;;;;;;;5.72;0.80;;;14.10;99.90;;;;;;5077647;28;20059;-75
2022/10/28 06:50:28;;;;;;;4.30;0.80;;;14.20;99.90;;;;;;5081064;28;20641;-81
2022/10/28 06:52:57;;;;;;;4.60;0.90;;;14.10;99.90;;;;;;5084295;28;20024;-75
2022/10/28 06:55:27;;;;;;;2.67;1.00;;;14.20;99.90;;;;;;5081580;28;20493;-75
2022/10/28 06:57:57;;;;;;;4.53;0.82;;;14.20;99.90;;;;;;5078579;28;20031;-75
2022/10/28 07:00:22;;;;;;;2.42;0.80;;;14.30;99.90;;;;;;5082840;28;20476;-79
2022/10/28 07:02:52;;;;;;;2.13;0.82;;;14.20;99.90;;;;;;5081052;28;20020;-76
2022/10/28 07:05:18;;;;;;;2.55;0.70;;;14.30;99.90;;;;;;5081162;28;20024;-78
2022/10/28 07:07:44;;;;;;;4.05;0.80;;;14.30;99.90;;;;;;5084323;28;20396;-76
2022/10/28 07:10:09;;;;;;;2.63;0.70;;;14.30;99.90;;;;;;5081506;28;20032;-75
2022/10/28 07:12:36;;;;;;;3.15;0.73;;;14.30;99.90;;;;;;5084995;28;20047;-77
2022/10/28 07:15:02;;;;;;;2.80;0.90;;;14.40;99.90;;;;;;5081370;28;20063;-79
2022/10/28 07:17:27;;;;;;;3.33;0.60;;;14.40;99.90;;;;;;5085457;28;20479;-75
2022/10/28 07:19:53;;;;;;;3.97;0.70;;;14.40;99.90;;;;;;5084938;28;20032;-77
2022/10/28 07:22:19;;;;;;;3.75;1.05;;;14.50;99.90;;;;;;5080807;28;20542;-81
2022/10/28 07:24:44;;;;;;;5.18;0.88;;;14.50;99.90;;;;;;5096346;28;20031;-76
2022/10/28 07:27:10;;;;;;;5.68;0.90;;;14.50;99.90;;;;;;5083614;28;20503;-81
2022/10/28 07:29:36;;;;;;;3.70;0.80;;;14.60;99.90;;;;;;5078886;28;20427;-79
2022/10/28 07:32:01;;;;;;;2.53;0.80;;;14.60;99.90;;;;;;5083546;28;20036;-77
2022/10/28 07:34:27;;;;;;;4.65;0.88;;;14.70;99.90;;;;;;5086061;28;20643;-76
2022/10/28 07:36:53;;;;;;;1.90;0.80;;;14.70;99.90;;;;;;5097677;28;20043;-75
2022/10/28 07:39:20;;;;;;;2.58;0.75;;;14.80;99.90;;;;;;5083812;28;20028;-77
2022/10/28 07:41:46;;;;;;;2.92;0.90;;;14.80;99.90;;;;;;5100920;28;20032;-75
2022/10/28 07:44:12;;;;;;;2.80;1.00;;;14.80;99.90;;;;;;5070403;28;20028;-76
2022/10/28 07:46:37;;;;;;;5.28;0.75;;;14.90;99.90;;;;;;5099739;28;20028;-76
2022/10/28 07:49:03;;;;;;;1.90;0.60;;;14.90;99.90;;;;;;5087541;28;20476;-75
2022/10/28 07:51:29;;;;;;;3.85;0.95;;;15.00;99.90;;;;;;5083389;28;20085;-78
2022/10/28 07:53:56;;;;;;;3.78;1.15;;;15.00;99.90;;;;;;5087348;28;20054;-75
2022/10/28 07:56:22;;;;;;;3.38;0.85;;;15.00;99.90;;;;;;5080865;28;20071;-76
2022/10/28 07:58:48;;;;;;;4.30;1.00;;;15.00;99.90;;;;;;5086427;28;20055;-76
2022/10/28 08:01:16;;;;;;;3.75;1.05;;;15.10;99.90;;;;;;5083994;28;20024;-80
2022/10/28 08:03:42;;;;;;;3.65;1.08;;;15.20;99.90;;;;;;5088774;28;20020;-81
2022/10/28 08:06:17;;;;;;;2.60;0.70;;;15.30;99.90;;;;;;5093405;28;20021;-75
2022/10/28 08:08:44;;;;;;;2.97;0.82;;;15.30;99.90;;;;;;5075476;28;20039;-76
2022/10/28 08:11:17;;;;;;;3.85;0.80;;;15.30;99.90;;;;;;5083686;28;20298;-76
2022/10/28 08:13:43;;;;;;;3.75;0.80;;;15.40;99.90;;;;;;5076424;28;20028;-78
2022/10/28 08:16:09;;;;;;;3.22;1.02;;;15.50;99.90;;;;;;5087875;28;20051;-81
2022/10/28 08:18:35;;;;;;;4.45;1.25;;;15.50;99.90;;;;;;5078726;28;20579;-75
2022/10/28 08:21:03;;;;;;;4.80;1.10;;;15.50;99.90;;;;;;5075765;28;20051;-78
2022/10/28 08:23:29;;;;;;;5.03;1.30;;;15.60;99.90;;;;;;5075999;28;20048;-81
2022/10/28 08:25:55;;;;;;;5.35;1.30;;;15.80;99.90;;;;;;5067585;28;20443;-77
2022/10/28 08:28:21;;;;;;;4.97;1.40;;;15.90;99.90;;;;;;5076396;28;20033;-76
2022/10/28 08:30:47;;;;;;;7.68;1.92;;;16.10;99.90;;;;;;5075409;28;20093;-75
2022/10/28 08:33:13;;;;;;;3.42;1.42;;;16.20;99.90;;;;;;5083132;28;20083;-78
2022/10/28 08:35:39;;;;;;;4.50;1.40;;;16.30;99.90;;;;;;5076111;28;20449;-80
2022/10/28 08:38:05;;;;;;;3.17;1.10;;;16.50;99.90;;;;;;5082222;28;20095;-81
2022/10/28 08:40:57;;;;;;;7.07;1.40;;;16.60;99.90;;;;;;5056006;28;20443;-77
2022/10/28 08:43:46;;;;;;;4.40;1.35;;;16.70;99.90;;;;;;5072989;28;20027;-76
2022/10/28 08:46:14;;;;;;;2.85;1.00;;;16.80;99.90;;;;;;5075523;28;20437;-76
2022/10/28 08:48:41;;;;;;;6.18;1.77;;;16.70;99.90;;;;;;5077765;28;20318;-77
2022/10/28 08:51:16;;;;;;;4.45;1.00;;;16.80;99.90;;;;;;5077954;28;20028;-82
2022/10/28 08:54:01;;;;;;;8.70;1.50;;;16.80;99.90;;;;;;5075444;28;20045;-77
2022/10/28 08:56:44;;;;;;;3.55;0.85;;;16.90;99.90;;;;;;5078286;28;20067;-77
2022/10/28 08:59:15;;;;;;;3.88;1.35;;;17.00;99.90;;;;;;5081956;28;20028;-79
2022/10/28 09:01:50;;;;;;;3.53;1.08;;;17.10;99.90;;;;;;5077808;28;20024;-81
2022/10/28 09:04:37;;;;;;;6.57;1.08;;;17.20;99.90;;;;;;5076282;28;20112;-77
2022/10/28 09:07:03;;;;;;;3.78;0.90;;;17.20;99.90;;;;;;5060392;28;20491;-76
2022/10/28 09:09:30;;;;;;;1.73;0.63;;;17.20;99.90;;;;;;5077348;28;20326;-78
2022/10/28 09:12:15;;;;;;;3.42;0.80;;;17.30;99.90;;;;;;5075850;28;20021;-80
2022/10/28 09:15:08;;;;;;;5.22;0.95;;;17.50;99.90;;;;;;5076745;28;20044;-76
2022/10/28 09:17:45;;;;;;;4.00;0.90;;;17.60;99.90;;;;;;5074320;28;20036;-76
2022/10/28 09:20:16;;;;;;;4.65;1.00;;;17.70;99.90;;;;;;5073155;28;20028;-78
2022/10/28 09:22:47;;;;;;;3.10;0.80;;;17.80;99.90;;;;;;5073113;28;20086;-79
2022/10/28 09:25:38;;;;;;;4.38;0.85;;;18.00;99.90;;;;;;5077238;28;20050;-80
2022/10/28 09:28:38;;;;;;;2.92;0.80;;;18.20;99.90;;;;;;5076191;28;20020;-77
2022/10/28 09:31:37;;;;;;;4.32;1.10;;;18.50;99.90;;;;;;5024826;28;20097;-76
2022/10/28 09:34:24;;;;;;;9.50;0.90;;;18.90;99.90;;;;;;5024911;28;20551;-76
2022/10/28 09:37:03;;;;;;;4.10;1.00;;;19.10;99.90;;;;;;5024384;28;20033;-75
2022/10/28 09:39:36;;;;;;;4.15;0.80;;;19.20;99.90;;;;;;5024057;28;20033;-77
2022/10/28 09:42:02;;;;;;;4.65;1.20;;;19.30;99.90;;;;;;5040216;28;20044;-79
2022/10/28 09:45:02;;;;;;;4.00;0.80;;;19.50;99.90;;;;;;5040136;28;20037;-76
2022/10/28 09:47:30;;;;;;;;;;;19.50;99.90;;;;;;5027542;28;20044;-79
2022/10/28 09:50:00;;;;;;;4.40;0.90;;;19.60;99.90;;;;;;5037356;28;20012;-76
2022/10/28 09:52:30;;;;;;;4.18;0.90;;;19.60;99.90;;;;;;5039997;28;20025;-78
2022/10/28 09:55:00;;;;;;;4.75;0.77;;;19.60;99.90;;;;;;5039207;28;20049;-76
2022/10/28 09:57:30;;;;;;;3.15;0.70;;;19.60;99.90;;;;;;5023819;28;20036;-76
2022/10/28 09:59:56;;;;;;;;;;;19.50;99.90;;;;;;5039884;28;20086;-76
2022/10/28 10:02:24;;;;;;;2.97;0.70;;;19.60;99.90;;;;;;5022657;28;20010;-76
2022/10/28 10:04:50;;;;;;;3.38;1.02;;;19.70;99.90;;;;;;5040729;28;20075;-75
2022/10/28 10:07:29;;;;;;;4.45;1.00;;;19.80;99.90;;;;;;5052653;28;20044;-77
2022/10/28 10:09:57;;;;;;;3.80;0.90;;;19.90;99.90;;;;;;5057267;28;20028;-76
2022/10/28 10:12:23;;;;;;;4.13;1.00;;;19.90;99.90;;;;;;5073505;28;20028;-75
2022/10/28 10:14:55;;;;;;;5.72;0.90;;;20.00;99.90;;;;;;5041183;28;20450;-80
2022/10/28 10:17:26;;;;;;;4.22;0.82;;;20.00;99.90;;;;;;5055469;28;20025;-75
2022/10/28 10:19:58;;;;;;;3.88;1.05;;;20.10;99.90;;;;;;5071236;28;20044;-77
2022/10/28 10:22:41;;;;;;;7.43;1.17;;;20.10;99.90;;;;;;5052254;28;20025;-76
2022/10/28 10:25:28;;;;;;;3.90;0.90;;;20.00;99.90;;;;;;5054362;28;20067;-75
2022/10/28 10:28:14;;;;;;;4.88;1.30;;;20.10;99.90;;;;;;5055997;28;20051;-77
2022/10/28 10:30:52;;;;;;;3.58;0.80;;;20.40;99.90;;;;;;5053432;28;20024;-77
2022/10/28 10:33:22;;;;;;;6.35;0.95;;;20.50;99.90;;;;;;5054473;28;20473;-75
2022/10/28 10:36:19;;;;;;;5.88;1.10;;;20.50;99.90;;;;;;5056244;28;20037;-76
2022/10/28 10:38:51;;;;;;;3.90;0.80;;;20.60;99.90;;;;;;5054487;28;20121;-79
2022/10/28 10:41:53;;;;;;;5.15;0.90;;;20.70;99.90;;;;;;5053458;28;20056;-76
2022/10/28 10:44:21;;;;;;;4.10;0.90;;;20.90;99.90;;;;;;4966625;28;20037;-76
2022/10/28 10:47:10;;;;;;;4.78;1.00;;;20.90;99.90;;;;;;4984676;28;20050;-80
2022/10/28 10:49:36;;;;;;;5.07;0.82;;;20.90;99.90;;;;;;4996512;28;20038;-75
2022/10/28 10:52:16;;;;;;;6.22;1.08;;;21.00;99.90;;;;;;4969344;28;20062;-76
2022/10/28 10:54:45;;;;;;;;;;;21.00;99.90;;;;;;5004893;28;20037;-76
2022/10/28 10:57:20;;;;;;;6.47;0.97;;;21.00;99.90;;;;;;4988332;28;19996;-76
2022/10/28 10:59:49;;;;;;;3.90;1.00;;;21.00;99.90;;;;;;4987237;28;20320;-80
2022/10/28 11:02:31;;;;;;;6.15;0.93;;;21.10;99.90;;;;;;5002975;28;20033;-76
2022/10/28 11:05:03;;;;;;;5.47;1.17;;;21.00;99.90;;;;;;5003868;28;20262;-79
2022/10/28 11:07:30;;;;;;;3.08;0.80;;;21.00;99.90;;;;;;5004571;28;20030;-75
2022/10/28 11:09:56;;;;;;;3.17;1.10;;;21.00;99.90;;;;;;4987627;28;20662;-76
2022/10/28 11:12:31;;;;;;;8.38;1.50;;;21.10;99.90;;;;;;5003208;28;20038;-77
2022/10/28 11:14:59;;;;;;;5.75;1.30;;;21.10;99.90;;;;;;4985036;28;20130;-78
2022/10/28 11:17:29;;;;;;;5.13;1.20;;;21.00;99.90;;;;;;4973776;28;20026;-79
2022/10/28 11:19:58;;;;;;;6.53;1.00;;;21.10;99.90;;;;;;5056418;28;20029;-76
2022/10/28 11:22:45;;;;;;;4.97;0.90;;;21.20;99.90;;;;;;5062436;28;20081;-76
2022/10/28 11:25:38;;;;;;;5.43;0.98;;;21.30;99.90;;;;;;5053151;28;20040;-77
2022/10/28 11:28:23;;;;;;;3.28;0.88;;;21.40;99.90;;;;;;5057422;28;20024;-76
2022/10/28 11:31:31;;;;;;;5.65;0.82;;;21.60;99.90;;;;;;5057787;28;20662;-80
2022/10/28 11:34:12;;;;;;;3.67;1.03;;;21.70;99.90;;;;;;5056097;28;20751;-76
2022/10/28 11:36:49;;;;;;;6.60;1.17;;;21.60;99.90;;;;;;5058842;28;20301;-79
2022/10/28 11:39:18;;;;;;;4.47;0.80;;;21.60;99.90;;;;;;5055457;28;20024;-80
2022/10/28 11:41:53;;;;;;;5.53;0.77;;;21.70;99.90;;;;;;5055837;28;20484;-78
2022/10/28 11:44:54;;;;;;;6.50;0.90;;;21.90;99.90;;;;;;5054115;28;20400;-77
2022/10/28 11:47:37;;;;;;;7.97;1.00;;;22.00;99.90;;;;;;5054452;28;20417;-78
2022/10/28 11:50:32;;;;;;;4.65;0.82;;;22.10;99.90;;;;;;5049765;28;20115;-78
2022/10/28 11:53:20;;;;;;;3.40;0.90;;;22.20;99.90;;;;;;5037133;28;20136;-80
2022/10/28 11:56:09;;;;;;;5.15;0.95;;;22.10;99.90;;;;;;5060098;28;20085;-77
2022/10/28 11:58:46;;;;;;;;;;;22.10;99.90;;;;;;5040588;28;20119;-77
2022/10/28 12:01:14;;;;;;;5.68;0.80;;;22.00;99.90;;;;;;5037843;28;19912;-76
2022/10/28 12:03:46;;;;;;;6.03;0.90;;;22.00;99.90;;;;;;5036409;28;20052;-78
2022/10/28 12:06:38;;;;;;;6.13;0.77;;;22.00;99.90;;;;;;5056219;28;20040;-78
2022/10/28 12:09:23;;;;;;;5.15;0.98;;;22.00;99.90;;;;;;5057435;28;20036;-79
2022/10/28 12:12:01;;;;;;;6.68;0.93;;;22.00;99.90;;;;;;5056207;28;20027;-78
2022/10/28 12:14:56;;;;;;;4.80;0.77;;;22.00;99.90;;;;;;5011107;28;1305665;-76
2022/10/28 12:17:28;;;;;;;5.25;0.80;;;21.90;99.90;;;;;;5042647;28;20040;-76
2022/10/28 12:20:01;;;;;;;5.53;0.77;;;21.90;99.90;;;;;;5058010;28;20032;-77
2022/10/28 12:22:32;;;;;;;7.28;0.80;;;21.80;99.90;;;;;;5056142;28;20032;-82
2022/10/28 12:25:05;;;;;;;3.55;0.60;;;21.80;99.90;;;;;;5058339;28;20163;-78
2022/10/28 12:27:36;;;;;;;3.85;0.73;;;21.80;99.90;;;;;;5055225;28;20039;-78
2022/10/28 12:30:27;;;;;;;4.05;0.85;;;21.90;99.90;;;;;;5061095;28;20032;-76
2022/10/28 12:33:00;;;;;;;5.32;0.90;;;21.90;99.90;;;;;;5059693;28;20490;-77
2022/10/28 12:35:36;;;;;;;7.70;0.93;;;22.00;99.90;;;;;;5053210;28;20524;-78
2022/10/28 12:38:14;;;;;;;3.22;0.93;;;22.00;99.90;;;;;;5056598;28;20029;-78
2022/10/28 12:41:08;;;;;;;2.00;0.75;;;22.00;99.90;;;;;;5059551;28;20044;-76
2022/10/28 12:43:37;;;;;;;3.50;0.60;;;22.10;99.90;;;;;;4979074;28;20038;-76
2022/10/28 12:46:03;;;;;;;2.72;0.73;;;22.10;99.90;;;;;;4979674;28;20069;-76
2022/10/28 12:48:44;;;;;;;5.68;0.80;;;22.00;99.90;;;;;;4980005;28;20061;-77
2022/10/28 12:51:30;;;;;;;3.95;0.65;;;22.10;99.90;;;;;;4996769;28;20493;-75
2022/10/28 12:54:29;;;;;;;3.97;1.00;;;22.10;99.90;;;;;;4981261;28;20065;-78
2022/10/28 12:57:03;;;;;;;4.57;0.60;;;22.10;99.90;;;;;;4997438;28;20084;-77
2022/10/28 12:59:43;;;;;;;6.22;0.70;;;22.20;99.90;;;;;;4983918;28;20038;-81
2022/10/28 13:02:30;;;;;;;5.68;0.90;;;22.10;99.90;;;;;;4986578;28;20564;-83
2022/10/28 13:04:57;;;;;;;5.13;0.70;;;22.10;99.90;;;;;;4997336;28;20030;-77
2022/10/28 13:07:47;;;;;;;7.75;1.45;;;22.10;99.90;;;;;;4998217;28;20069;-76
2022/10/28 13:10:53;;;;;;;6.60;0.95;;;22.10;99.90;;;;;;4997472;28;20042;-79
2022/10/28 13:13:35;;;;;;;6.50;1.42;;;22.20;99.90;;;;;;4967800;28;20133;-80
2022/10/28 13:16:13;;;;;;;9.10;1.17;;;22.20;99.90;;;;;;4977032;28;20035;-82